sensor_id;sensor_type;location;lat;lon;timestamp;temperature;humidity
51637;DHT22;37713;53.254;6.460;2023-05-02T00:00:43;9.70;99.90
51637;DHT22;37713;53.254;6.460;2023-05-02T00:03:10;9.60;99.90
51637;DHT22;37713;53.254;6.460;2023-05-02T00:05:36;9.70;99.90
51637;DHT22;37713;53.254;6.460;2023-05-02T00:08:02;9.60;99.90
51637;DHT22;37713;53.254;6.460;2023-05-02T00:10:28;9.60;99.90
51637;DHT22;37713;53.254;6.460;2023-05-02T00:12:54;9.50;99.90
51637;DHT22;37713;53.254;6.460;2023-05-02T00:15:20;9.50;99.90
51637;DHT22;37713;53.254;6.460;2023-05-02T00:17:46;9.50;99.90
51637;DHT22;37713;53.254;6.460;2023-05-02T00:20:12;9.50;99.90
51637;DHT22;37713;53.254;6.460;2023-05-02T00:22:38;9.50;99.90
51637;DHT22;37713;53.254;6.460;2023-05-02T00:25:05;9.50;99.90
51637;DHT22;37713;53.254;6.460;2023-05-02T00:27:31;9.50;99.90
51637;DHT22;37713;53.254;6.460;2023-05-02T00:29:58;9.50;99.90
51637;DHT22;37713;53.254;6.460;2023-05-02T00:32:25;9.60;99.90
51637;DHT22;37713;53.254;6.460;2023-05-02T00:34:51;9.60;99.90
51637;DHT22;37713;53.254;6.460;2023-05-02T00:37:17;9.50;99.90
51637;DHT22;37713;53.254;6.460;2023-05-02T00:39:43;9.60;99.90
51637;DHT22;37713;53.254;6.460;2023-05-02T00:42:09;9.60;99.90
51637;DHT22;37713;53.254;6.460;2023-05-02T00:44:35;9.60;99.90
51637;DHT22;37713;53.254;6.460;2023-05-02T00:47:01;9.60;99.90
51637;DHT22;37713;53.254;6.460;2023-05-02T00:49:27;9.60;99.90
51637;DHT22;37713;53.254;6.460;2023-05-02T00:51:53;9.50;99.90
51637;DHT22;37713;53.254;6.460;2023-05-02T00:54:20;9.50;99.90
51637;DHT22;37713;53.254;6.460;2023-05-02T00:56:46;9.50;99.90
51637;DHT22;37713;53.254;6.460;2023-05-02T00:59:12;9.50;99.90
51637;DHT22;37713;53.254;6.460;2023-05-02T01:10:56;9.30;99.90
51637;DHT22;37713;53.254;6.460;2023-05-02T01:13:28;9.20;99.90
51637;DHT22;37713;53.254;6.460;2023-05-02T01:15:58;9.10;99.90
51637;DHT22;37713;53.254;6.460;2023-05-02T01:18:29;9.00;99.90
51637;DHT22;37713;53.254;6.460;2023-05-02T01:20:59;9.00;99.90
51637;DHT22;37713;53.254;6.460;2023-05-02T01:28:59;8.90;99.90
51637;DHT22;37713;53.254;6.460;2023-05-02T01:31:48;8.90;99.90
51637;DHT22;37713;53.254;6.460;2023-05-02T01:34:12;8.90;99.90
51637;DHT22;37713;53.254;6.460;2023-05-02T01:36:43;8.80;99.90
51637;DHT22;37713;53.254;6.460;2023-05-02T01:39:13;8.80;99.90
51637;DHT22;37713;53.254;6.460;2023-05-02T01:41:41;8.80;99.90
51637;DHT22;37713;53.254;6.460;2023-05-02T01:44:08;8.70;99.90
51637;DHT22;37713;53.254;6.460;2023-05-02T01:46:38;8.70;99.90
51637;DHT22;37713;53.254;6.460;2023-05-02T01:49:06;8.60;99.90
51637;DHT22;37713;53.254;6.460;2023-05-02T01:51:36;8.60;99.90
51637;DHT22;37713;53.254;6.460;2023-05-02T01:54:04;8.60;99.90
51637;DHT22;37713;53.254;6.460;2023-05-02T01:56:34;8.50;99.90
51637;DHT22;37713;53.254;6.460;2023-05-02T01:59:04;8.50;99.90
51637;DHT22;37713;53.254;6.460;2023-05-02T02:01:31;8.40;99.90
51637;DHT22;37713;53.254;6.460;2023-05-02T02:03:59;8.40;99.90
51637;DHT22;37713;53.254;6.460;2023-05-02T02:06:26;8.40;99.90
51637;DHT22;37713;53.254;6.460;2023-05-02T02:08:52;8.40;99.90
51637;DHT22;37713;53.254;6.460;2023-05-02T02:11:26;8.30;99.90
51637;DHT22;37713;53.254;6.460;2023-05-02T02:14:00;8.30;99.90
51637;DHT22;37713;53.254;6.460;2023-05-02T02:16:30;8.30;99.90
51637;DHT22;37713;53.254;6.460;2023-05-02T02:18:58;8.30;99.90
51637;DHT22;37713;53.254;6.460;2023-05-02T02:21:30;8.20;99.90
51637;DHT22;37713;53.254;6.460;2023-05-02T02:23:59;8.20;99.90
51637;DHT22;37713;53.254;6.460;2023-05-02T02:26:26;8.10;99.90
51637;DHT22;37713;53.254;6.460;2023-05-02T02:28:52;8.00;99.90
51637;DHT22;37713;53.254;6.460;2023-05-02T02:31:18;8.00;99.90
51637;DHT22;37713;53.254;6.460;2023-05-02T02:33:44;8.00;99.90
51637;DHT22;37713;53.254;6.460;2023-05-02T02:36:38;7.90;99.90
51637;DHT22;37713;53.254;6.460;2023-05-02T02:39:45;7.90;99.90
51637;DHT22;37713;53.254;6.460;2023-05-02T02:42:31;7.80;99.90
51637;DHT22;37713;53.254;6.460;2023-05-02T02:45:15;7.70;99.90
51637;DHT22;37713;53.254;6.460;2023-05-02T02:47:48;7.70;99.90
51637;DHT22;37713;53.254;6.460;2023-05-02T02:50:30;7.70;99.90
51637;DHT22;37713;53.254;6.460;2023-05-02T02:53:08;7.60;99.90
51637;DHT22;37713;53.254;6.460;2023-05-02T02:56:01;7.60;99.90
51637;DHT22;37713;53.254;6.460;2023-05-02T03:03:44;7.40;99.90
51637;DHT22;37713;53.254;6.460;2023-05-02T03:06:12;7.40;99.90
51637;DHT22;37713;53.254;6.460;2023-05-02T03:08:42;7.30;99.90
51637;DHT22;37713;53.254;6.460;2023-05-02T03:11:08;7.30;99.90
51637;DHT22;37713;53.254;6.460;2023-05-02T03:13:37;7.30;99.90
51637;DHT22;37713;53.254;6.460;2023-05-02T03:16:36;7.30;99.90
51637;DHT22;37713;53.254;6.460;2023-05-02T03:19:06;7.30;99.90
51637;DHT22;37713;53.254;6.460;2023-05-02T03:21:33;7.30;99.90
51637;DHT22;37713;53.254;6.460;2023-05-02T03:24:01;7.30;99.90
51637;DHT22;37713;53.254;6.460;2023-05-02T03:26:27;7.30;99.90
51637;DHT22;37713;53.254;6.460;2023-05-02T03:28:54;7.30;99.90
51637;DHT22;37713;53.254;6.460;2023-05-02T03:31:20;7.20;99.90
51637;DHT22;37713;53.254;6.460;2023-05-02T03:33:47;7.20;99.90
51637;DHT22;37713;53.254;6.460;2023-05-02T03:36:13;7.20;99.90
51637;DHT22;37713;53.254;6.460;2023-05-02T03:38:39;7.10;99.90
51637;DHT22;37713;53.254;6.460;2023-05-02T03:41:05;7.10;99.90
51637;DHT22;37713;53.254;6.460;2023-05-02T03:43:31;7.10;99.90
51637;DHT22;37713;53.254;6.460;2023-05-02T03:46:02;7.10;99.90
51637;DHT22;37713;53.254;6.460;2023-05-02T03:48:28;7.00;99.90
51637;DHT22;37713;53.254;6.460;2023-05-02T03:50:54;7.00;99.90
51637;DHT22;37713;53.254;6.460;2023-05-02T03:53:20;7.00;99.90
51637;DHT22;37713;53.254;6.460;2023-05-02T03:55:46;7.00;99.90
51637;DHT22;37713;53.254;6.460;2023-05-02T03:58:11;7.00;99.90
51637;DHT22;37713;53.254;6.460;2023-05-02T04:00:37;7.00;99.90
51637;DHT22;37713;53.254;6.460;2023-05-02T04:03:03;7.00;99.90
51637;DHT22;37713;53.254;6.460;2023-05-02T04:05:29;7.00;99.90
51637;DHT22;37713;53.254;6.460;2023-05-02T04:07:56;7.00;99.90
51637;DHT22;37713;53.254;6.460;2023-05-02T04:10:22;6.90;99.90
51637;DHT22;37713;53.254;6.460;2023-05-02T04:12:47;6.90;99.90
51637;DHT22;37713;53.254;6.460;2023-05-02T04:15:13;6.90;99.90
51637;DHT22;37713;53.254;6.460;2023-05-02T04:17:39;6.90;99.90
51637;DHT22;37713;53.254;6.460;2023-05-02T04:20:06;6.90;99.90
51637;DHT22;37713;53.254;6.460;2023-05-02T04:22:32;6.90;99.90
51637;DHT22;37713;53.254;6.460;2023-05-02T04:24:58;6.90;99.90
51637;DHT22;37713;53.254;6.460;2023-05-02T04:27:24;6.80;99.90
51637;DHT22;37713;53.254;6.460;2023-05-02T04:29:51;6.80;99.90
51637;DHT22;37713;53.254;6.460;2023-05-02T04:32:21;6.80;99.90
51637;DHT22;37713;53.254;6.460;2023-05-02T04:34:46;6.80;99.90
51637;DHT22;37713;53.254;6.460;2023-05-02T04:37:12;6.80;99.90
51637;DHT22;37713;53.254;6.460;2023-05-02T04:39:38;6.80;99.90
51637;DHT22;37713;53.254;6.460;2023-05-02T04:42:04;6.90;99.90
51637;DHT22;37713;53.254;6.460;2023-05-02T04:44:30;6.80;99.90
51637;DHT22;37713;53.254;6.460;2023-05-02T04:46:55;6.80;99.90
51637;DHT22;37713;53.254;6.460;2023-05-02T04:49:21;6.90;99.90
51637;DHT22;37713;53.254;6.460;2023-05-02T04:51:47;6.80;99.90
51637;DHT22;37713;53.254;6.460;2023-05-02T04:54:13;6.90;99.90
51637;DHT22;37713;53.254;6.460;2023-05-02T04:56:39;6.90;99.90
51637;DHT22;37713;53.254;6.460;2023-05-02T04:59:05;6.90;99.90
51637;DHT22;37713;53.254;6.460;2023-05-02T05:01:31;6.90;99.90
51637;DHT22;37713;53.254;6.460;2023-05-02T05:03:57;6.90;99.90
51637;DHT22;37713;53.254;6.460;2023-05-02T05:06:23;6.90;99.90
51637;DHT22;37713;53.254;6.460;2023-05-02T05:08:48;6.90;99.90
51637;DHT22;37713;53.254;6.460;2023-05-02T05:11:14;7.00;99.90
51637;DHT22;37713;53.254;6.460;2023-05-02T05:13:40;6.90;99.90
51637;DHT22;37713;53.254;6.460;2023-05-02T05:16:07;7.00;99.90
51637;DHT22;37713;53.254;6.460;2023-05-02T05:18:33;7.00;99.90
51637;DHT22;37713;53.254;6.460;2023-05-02T05:21:09;7.00;99.90
51637;DHT22;37713;53.254;6.460;2023-05-02T05:23:36;7.00;99.90
51637;DHT22;37713;53.254;6.460;2023-05-02T05:26:13;7.00;99.90
51637;DHT22;37713;53.254;6.460;2023-05-02T05:28:40;7.00;99.90
51637;DHT22;37713;53.254;6.460;2023-05-02T05:31:06;7.00;99.90
51637;DHT22;37713;53.254;6.460;2023-05-02T05:33:33;7.00;99.90
51637;DHT22;37713;53.254;6.460;2023-05-02T05:36:04;7.00;99.90
51637;DHT22;37713;53.254;6.460;2023-05-02T05:38:30;7.00;99.90
51637;DHT22;37713;53.254;6.460;2023-05-02T05:40:56;7.00;99.90
51637;DHT22;37713;53.254;6.460;2023-05-02T05:43:22;7.10;99.90
51637;DHT22;37713;53.254;6.460;2023-05-02T05:45:51;7.10;99.90
51637;DHT22;37713;53.254;6.460;2023-05-02T05:48:16;7.10;99.90
51637;DHT22;37713;53.254;6.460;2023-05-02T05:50:42;7.10;99.90
51637;DHT22;37713;53.254;6.460;2023-05-02T05:53:08;7.10;99.90
51637;DHT22;37713;53.254;6.460;2023-05-02T05:55:34;7.10;99.90
51637;DHT22;37713;53.254;6.460;2023-05-02T05:58:00;7.10;99.90
51637;DHT22;37713;53.254;6.460;2023-05-02T06:00:26;7.10;99.90
51637;DHT22;37713;53.254;6.460;2023-05-02T06:02:52;7.20;99.90
51637;DHT22;37713;53.254;6.460;2023-05-02T06:05:18;7.20;99.90
51637;DHT22;37713;53.254;6.460;2023-05-02T06:07:44;7.10;99.90
51637;DHT22;37713;53.254;6.460;2023-05-02T06:10:10;7.10;99.90
51637;DHT22;37713;53.254;6.460;2023-05-02T06:12:35;7.10;99.90
51637;DHT22;37713;53.254;6.460;2023-05-02T06:15:01;7.10;99.90
51637;DHT22;37713;53.254;6.460;2023-05-02T06:17:27;7.10;99.90
51637;DHT22;37713;53.254;6.460;2023-05-02T06:19:53;7.10;99.90
51637;DHT22;37713;53.254;6.460;2023-05-02T06:22:18;7.20;99.90
51637;DHT22;37713;53.254;6.460;2023-05-02T06:24:44;7.20;99.90
51637;DHT22;37713;53.254;6.460;2023-05-02T06:27:10;7.20;99.90
51637;DHT22;37713;53.254;6.460;2023-05-02T06:29:36;7.20;99.90
51637;DHT22;37713;53.254;6.460;2023-05-02T06:32:01;7.20;99.90
51637;DHT22;37713;53.254;6.460;2023-05-02T06:34:31;7.20;99.90
51637;DHT22;37713;53.254;6.460;2023-05-02T06:36:57;7.20;99.90
51637;DHT22;37713;53.254;6.460;2023-05-02T06:39:23;7.20;99.90
51637;DHT22;37713;53.254;6.460;2023-05-02T06:41:49;7.30;99.90
51637;DHT22;37713;53.254;6.460;2023-05-02T06:44:15;7.30;99.90
51637;DHT22;37713;53.254;6.460;2023-05-02T06:46:41;7.30;99.90
51637;DHT22;37713;53.254;6.460;2023-05-02T06:49:07;7.40;99.90
51637;DHT22;37713;53.254;6.460;2023-05-02T06:51:33;7.40;99.90
51637;DHT22;37713;53.254;6.460;2023-05-02T06:53:59;7.50;99.90
51637;DHT22;37713;53.254;6.460;2023-05-02T06:56:25;7.50;99.90
51637;DHT22;37713;53.254;6.460;2023-05-02T06:58:51;7.60;99.90
51637;DHT22;37713;53.254;6.460;2023-05-02T07:01:17;7.60;99.90
51637;DHT22;37713;53.254;6.460;2023-05-02T07:03:43;7.70;99.90
51637;DHT22;37713;53.254;6.460;2023-05-02T07:06:08;7.70;99.90
51637;DHT22;37713;53.254;6.460;2023-05-02T07:08:34;7.80;99.90
51637;DHT22;37713;53.254;6.460;2023-05-02T07:11:01;7.80;99.90
51637;DHT22;37713;53.254;6.460;2023-05-02T07:13:27;7.80;99.90
51637;DHT22;37713;53.254;6.460;2023-05-02T07:15:53;7.90;99.90
51637;DHT22;37713;53.254;6.460;2023-05-02T07:18:19;7.90;99.90
51637;DHT22;37713;53.254;6.460;2023-05-02T07:20:45;7.90;99.90
51637;DHT22;37713;53.254;6.460;2023-05-02T07:23:11;8.00;99.90
51637;DHT22;37713;53.254;6.460;2023-05-02T07:25:37;8.10;99.90
51637;DHT22;37713;53.254;6.460;2023-05-02T07:28:05;8.10;99.90
51637;DHT22;37713;53.254;6.460;2023-05-02T07:30:31;8.10;99.90
51637;DHT22;37713;53.254;6.460;2023-05-02T07:32:57;8.20;99.90
51637;DHT22;37713;53.254;6.460;2023-05-02T07:35:23;8.20;99.90
51637;DHT22;37713;53.254;6.460;2023-05-02T07:37:48;8.20;99.90
51637;DHT22;37713;53.254;6.460;2023-05-02T07:40:14;8.30;99.90
51637;DHT22;37713;53.254;6.460;2023-05-02T07:42:40;8.30;99.90
51637;DHT22;37713;53.254;6.460;2023-05-02T07:45:07;8.30;99.90
51637;DHT22;37713;53.254;6.460;2023-05-02T07:47:33;8.30;99.90
51637;DHT22;37713;53.254;6.460;2023-05-02T07:49:59;8.30;99.90
51637;DHT22;37713;53.254;6.460;2023-05-02T07:52:25;8.20;99.90
51637;DHT22;37713;53.254;6.460;2023-05-02T07:54:51;8.30;99.90
51637;DHT22;37713;53.254;6.460;2023-05-02T07:57:17;8.30;99.90
51637;DHT22;37713;53.254;6.460;2023-05-02T07:59:43;8.40;99.90
51637;DHT22;37713;53.254;6.460;2023-05-02T08:02:08;8.40;99.90
51637;DHT22;37713;53.254;6.460;2023-05-02T08:04:35;8.60;99.90
51637;DHT22;37713;53.254;6.460;2023-05-02T08:07:01;8.90;99.90
51637;DHT22;37713;53.254;6.460;2023-05-02T08:09:28;8.90;99.90
51637;DHT22;37713;53.254;6.460;2023-05-02T08:11:54;9.00;99.90
51637;DHT22;37713;53.254;6.460;2023-05-02T08:14:20;9.20;99.90
51637;DHT22;37713;53.254;6.460;2023-05-02T08:16:45;9.40;99.90
51637;DHT22;37713;53.254;6.460;2023-05-02T08:19:11;9.60;99.90
51637;DHT22;37713;53.254;6.460;2023-05-02T08:21:37;9.70;99.90
51637;DHT22;37713;53.254;6.460;2023-05-02T08:24:03;10.00;99.90
51637;DHT22;37713;53.254;6.460;2023-05-02T08:26:29;10.30;99.90
51637;DHT22;37713;53.254;6.460;2023-05-02T08:28:55;10.60;99.90
51637;DHT22;37713;53.254;6.460;2023-05-02T08:31:21;11.00;99.90
51637;DHT22;37713;53.254;6.460;2023-05-02T08:33:47;10.90;99.90
51637;DHT22;37713;53.254;6.460;2023-05-02T08:36:14;11.30;99.90
51637;DHT22;37713;53.254;6.460;2023-05-02T08:38:44;11.20;99.90
51637;DHT22;37713;53.254;6.460;2023-05-02T08:41:15;10.90;99.90
51637;DHT22;37713;53.254;6.460;2023-05-02T08:43:43;10.90;99.90
51637;DHT22;37713;53.254;6.460;2023-05-02T08:46:14;10.90;99.90
51637;DHT22;37713;53.254;6.460;2023-05-02T08:48:41;10.90;99.90
51637;DHT22;37713;53.254;6.460;2023-05-02T08:51:10;10.80;99.90
51637;DHT22;37713;53.254;6.460;2023-05-02T08:53:37;10.50;99.90
51637;DHT22;37713;53.254;6.460;2023-05-02T08:56:03;10.40;99.90
51637;DHT22;37713;53.254;6.460;2023-05-02T08:58:30;10.00;99.90
51637;DHT22;37713;53.254;6.460;2023-05-02T09:01:00;10.00;99.90
51637;DHT22;37713;53.254;6.460;2023-05-02T09:03:34;10.00;99.90
51637;DHT22;37713;53.254;6.460;2023-05-02T09:06:12;10.00;99.90
51637;DHT22;37713;53.254;6.460;2023-05-02T09:08:39;10.00;99.90
51637;DHT22;37713;53.254;6.460;2023-05-02T09:11:06;10.00;99.90
51637;DHT22;37713;53.254;6.460;2023-05-02T09:13:37;9.90;99.90
51637;DHT22;37713;53.254;6.460;2023-05-02T09:16:05;9.90;99.90
51637;DHT22;37713;53.254;6.460;2023-05-02T09:18:36;9.90;99.90
51637;DHT22;37713;53.254;6.460;2023-05-02T09:21:08;10.00;99.90
51637;DHT22;37713;53.254;6.460;2023-05-02T09:23:36;10.30;99.90
51637;DHT22;37713;53.254;6.460;2023-05-02T09:28:44;11.00;99.90
51637;DHT22;37713;53.254;6.460;2023-05-02T09:31:12;11.10;99.90
51637;DHT22;37713;53.254;6.460;2023-05-02T09:33:39;11.00;99.90
51637;DHT22;37713;53.254;6.460;2023-05-02T09:36:06;10.70;99.90
51637;DHT22;37713;53.254;6.460;2023-05-02T09:38:32;10.60;99.90
51637;DHT22;37713;53.254;6.460;2023-05-02T09:40:59;10.60;99.90
51637;DHT22;37713;53.254;6.460;2023-05-02T09:43:29;10.40;99.90
51637;DHT22;37713;53.254;6.460;2023-05-02T09:46:00;10.40;99.90
51637;DHT22;37713;53.254;6.460;2023-05-02T09:48:28;10.50;99.90
51637;DHT22;37713;53.254;6.460;2023-05-02T09:50:54;10.30;99.90
51637;DHT22;37713;53.254;6.460;2023-05-02T09:53:21;10.50;99.90
51637;DHT22;37713;53.254;6.460;2023-05-02T09:55:58;10.60;99.90
51637;DHT22;37713;53.254;6.460;2023-05-02T09:58:24;10.60;99.90
51637;DHT22;37713;53.254;6.460;2023-05-02T10:00:50;10.70;99.90
51637;DHT22;37713;53.254;6.460;2023-05-02T10:03:17;10.70;99.90
51637;DHT22;37713;53.254;6.460;2023-05-02T10:05:45;10.60;99.90
51637;DHT22;37713;53.254;6.460;2023-05-02T10:08:11;11.00;99.90
51637;DHT22;37713;53.254;6.460;2023-05-02T10:10:39;11.20;99.90
51637;DHT22;37713;53.254;6.460;2023-05-02T10:13:07;11.10;99.90
51637;DHT22;37713;53.254;6.460;2023-05-02T10:15:37;11.10;99.90
51637;DHT22;37713;53.254;6.460;2023-05-02T10:18:16;10.90;99.90
51637;DHT22;37713;53.254;6.460;2023-05-02T10:20:47;11.10;99.90
51637;DHT22;37713;53.254;6.460;2023-05-02T10:23:15;11.40;99.90
51637;DHT22;37713;53.254;6.460;2023-05-02T10:25:41;11.70;99.90
51637;DHT22;37713;53.254;6.460;2023-05-02T10:28:09;11.40;99.90
51637;DHT22;37713;53.254;6.460;2023-05-02T10:30:35;11.00;99.90
51637;DHT22;37713;53.254;6.460;2023-05-02T10:33:02;10.80;99.90
51637;DHT22;37713;53.254;6.460;2023-05-02T10:35:29;10.80;99.90
51637;DHT22;37713;53.254;6.460;2023-05-02T10:37:57;10.80;99.90
51637;DHT22;37713;53.254;6.460;2023-05-02T10:40:24;10.80;99.90
51637;DHT22;37713;53.254;6.460;2023-05-02T10:42:51;10.80;99.90
51637;DHT22;37713;53.254;6.460;2023-05-02T10:45:40;11.00;99.90
51637;DHT22;37713;53.254;6.460;2023-05-02T10:48:25;10.80;99.90
51637;DHT22;37713;53.254;6.460;2023-05-02T10:53:35;11.20;99.90
51637;DHT22;37713;53.254;6.460;2023-05-02T10:58:33;11.00;99.90
51637;DHT22;37713;53.254;6.460;2023-05-02T11:03:56;11.20;99.90
51637;DHT22;37713;53.254;6.460;2023-05-02T11:06:25;11.20;99.90
51637;DHT22;37713;53.254;6.460;2023-05-02T11:08:52;11.20;99.90
51637;DHT22;37713;53.254;6.460;2023-05-02T11:11:40;11.30;99.90
51637;DHT22;37713;53.254;6.460;2023-05-02T11:14:07;11.30;99.90
51637;DHT22;37713;53.254;6.460;2023-05-02T11:24:49;11.90;99.90
51637;DHT22;37713;53.254;6.460;2023-05-02T11:30:06;11.70;99.90
51637;DHT22;37713;53.254;6.460;2023-05-02T11:35:26;11.10;99.90
51637;DHT22;37713;53.254;6.460;2023-05-02T11:37:52;11.10;99.90
51637;DHT22;37713;53.254;6.460;2023-05-02T11:40:18;11.00;99.90
51637;DHT22;37713;53.254;6.460;2023-05-02T11:42:45;10.90;99.90
51637;DHT22;37713;53.254;6.460;2023-05-02T11:45:11;10.90;99.90
51637;DHT22;37713;53.254;6.460;2023-05-02T11:47:37;11.00;99.90
51637;DHT22;37713;53.254;6.460;2023-05-02T11:50:07;11.10;99.90
51637;DHT22;37713;53.254;6.460;2023-05-02T11:52:42;10.90;99.90
51637;DHT22;37713;53.254;6.460;2023-05-02T11:55:12;10.90;99.90
51637;DHT22;37713;53.254;6.460;2023-05-02T11:57:38;11.00;99.90
51637;DHT22;37713;53.254;6.460;2023-05-02T12:00:08;10.90;99.90
51637;DHT22;37713;53.254;6.460;2023-05-02T12:02:44;11.00;99.90
51637;DHT22;37713;53.254;6.460;2023-05-02T12:05:13;11.00;99.90
51637;DHT22;37713;53.254;6.460;2023-05-02T12:07:41;11.20;99.90
51637;DHT22;37713;53.254;6.460;2023-05-02T12:10:08;11.10;99.90
51637;DHT22;37713;53.254;6.460;2023-05-02T12:12:35;11.30;99.90
51637;DHT22;37713;53.254;6.460;2023-05-02T12:15:08;11.30;99.90
51637;DHT22;37713;53.254;6.460;2023-05-02T12:17:39;11.10;99.90
51637;DHT22;37713;53.254;6.460;2023-05-02T12:20:07;11.00;99.90
51637;DHT22;37713;53.254;6.460;2023-05-02T12:22:34;11.00;99.90
51637;DHT22;37713;53.254;6.460;2023-05-02T12:25:00;11.00;99.90
51637;DHT22;37713;53.254;6.460;2023-05-02T12:27:28;11.10;99.90
51637;DHT22;37713;53.254;6.460;2023-05-02T12:29:54;11.30;99.90
51637;DHT22;37713;53.254;6.460;2023-05-02T12:32:29;11.40;99.90
51637;DHT22;37713;53.254;6.460;2023-05-02T12:34:56;11.70;99.90
51637;DHT22;37713;53.254;6.460;2023-05-02T12:37:26;12.10;99.90
51637;DHT22;37713;53.254;6.460;2023-05-02T12:39:53;12.30;99.90
51637;DHT22;37713;53.254;6.460;2023-05-02T12:42:22;12.30;99.90
51637;DHT22;37713;53.254;6.460;2023-05-02T12:44:49;12.30;99.90
51637;DHT22;37713;53.254;6.460;2023-05-02T12:47:19;12.20;99.90
51637;DHT22;37713;53.254;6.460;2023-05-02T12:49:56;11.70;99.90
51637;DHT22;37713;53.254;6.460;2023-05-02T12:52:45;11.50;99.90
51637;DHT22;37713;53.254;6.460;2023-05-02T12:55:18;11.20;99.90
51637;DHT22;37713;53.254;6.460;2023-05-02T12:57:44;10.90;99.90
51637;DHT22;37713;53.254;6.460;2023-05-02T13:00:10;10.70;99.90
51637;DHT22;37713;53.254;6.460;2023-05-02T13:02:37;10.60;99.90
51637;DHT22;37713;53.254;6.460;2023-05-02T13:05:16;10.50;99.90
51637;DHT22;37713;53.254;6.460;2023-05-02T13:07:42;10.40;99.90
51637;DHT22;37713;53.254;6.460;2023-05-02T13:10:08;10.40;99.90
51637;DHT22;37713;53.254;6.460;2023-05-02T13:12:35;10.40;99.90
51637;DHT22;37713;53.254;6.460;2023-05-02T13:15:06;10.50;99.90
51637;DHT22;37713;53.254;6.460;2023-05-02T13:17:35;10.60;99.90
51637;DHT22;37713;53.254;6.460;2023-05-02T13:20:01;11.00;99.90
51637;DHT22;37713;53.254;6.460;2023-05-02T13:22:27;11.10;99.90
51637;DHT22;37713;53.254;6.460;2023-05-02T13:24:54;11.10;99.90
51637;DHT22;37713;53.254;6.460;2023-05-02T13:27:23;11.10;99.90
51637;DHT22;37713;53.254;6.460;2023-05-02T13:29:51;11.10;99.90
51637;DHT22;37713;53.254;6.460;2023-05-02T13:32:17;10.90;99.90
51637;DHT22;37713;53.254;6.460;2023-05-02T13:34:43;10.70;99.90
51637;DHT22;37713;53.254;6.460;2023-05-02T13:37:10;10.90;99.90
51637;DHT22;37713;53.254;6.460;2023-05-02T13:39:36;11.10;99.90
51637;DHT22;37713;53.254;6.460;2023-05-02T13:42:02;11.10;99.90
51637;DHT22;37713;53.254;6.460;2023-05-02T13:44:29;11.00;99.90
51637;DHT22;37713;53.254;6.460;2023-05-02T13:46:55;11.20;99.90
51637;DHT22;37713;53.254;6.460;2023-05-02T13:49:21;11.10;99.90
51637;DHT22;37713;53.254;6.460;2023-05-02T13:51:47;11.30;99.90
51637;DHT22;37713;53.254;6.460;2023-05-02T13:54:13;11.60;99.90
51637;DHT22;37713;53.254;6.460;2023-05-02T13:56:40;11.60;99.90
51637;DHT22;37713;53.254;6.460;2023-05-02T13:59:06;11.50;99.90
51637;DHT22;37713;53.254;6.460;2023-05-02T14:01:32;11.60;99.90
51637;DHT22;37713;53.254;6.460;2023-05-02T14:03:58;11.70;99.90
51637;DHT22;37713;53.254;6.460;2023-05-02T14:06:24;11.70;99.90
51637;DHT22;37713;53.254;6.460;2023-05-02T14:08:50;11.60;99.90
51637;DHT22;37713;53.254;6.460;2023-05-02T14:11:16;11.60;99.90
51637;DHT22;37713;53.254;6.460;2023-05-02T14:13:42;11.30;99.90
51637;DHT22;37713;53.254;6.460;2023-05-02T14:16:09;11.40;99.90
51637;DHT22;37713;53.254;6.460;2023-05-02T14:18:35;11.30;99.90
51637;DHT22;37713;53.254;6.460;2023-05-02T14:21:01;11.10;99.90
51637;DHT22;37713;53.254;6.460;2023-05-02T14:23:27;11.00;99.90
51637;DHT22;37713;53.254;6.460;2023-05-02T14:25:54;11.00;99.90
51637;DHT22;37713;53.254;6.460;2023-05-02T14:28:20;10.80;99.90
51637;DHT22;37713;53.254;6.460;2023-05-02T14:30:50;10.60;99.90
51637;DHT22;37713;53.254;6.460;2023-05-02T14:33:16;10.60;99.90
51637;DHT22;37713;53.254;6.460;2023-05-02T14:35:42;10.60;99.90
51637;DHT22;37713;53.254;6.460;2023-05-02T14:38:07;10.30;99.90
51637;DHT22;37713;53.254;6.460;2023-05-02T14:40:33;10.30;99.90
51637;DHT22;37713;53.254;6.460;2023-05-02T14:42:59;10.20;99.90
51637;DHT22;37713;53.254;6.460;2023-05-02T14:45:25;10.10;99.90
51637;DHT22;37713;53.254;6.460;2023-05-02T14:47:51;10.00;99.90
51637;DHT22;37713;53.254;6.460;2023-05-02T14:50:17;10.10;99.90
51637;DHT22;37713;53.254;6.460;2023-05-02T14:52:43;10.10;99.90
51637;DHT22;37713;53.254;6.460;2023-05-02T14:55:12;10.10;99.90
51637;DHT22;37713;53.254;6.460;2023-05-02T14:57:38;10.00;99.90
51637;DHT22;37713;53.254;6.460;2023-05-02T15:00:04;10.10;99.90
51637;DHT22;37713;53.254;6.460;2023-05-02T15:02:35;10.20;99.90
51637;DHT22;37713;53.254;6.460;2023-05-02T15:05:02;10.20;99.90
51637;DHT22;37713;53.254;6.460;2023-05-02T15:07:28;10.30;99.90
51637;DHT22;37713;53.254;6.460;2023-05-02T15:09:54;10.40;99.90
51637;DHT22;37713;53.254;6.460;2023-05-02T15:12:20;10.60;99.90
51637;DHT22;37713;53.254;6.460;2023-05-02T15:14:46;10.60;99.90
51637;DHT22;37713;53.254;6.460;2023-05-02T15:17:11;10.40;99.90
51637;DHT22;37713;53.254;6.460;2023-05-02T15:19:37;10.40;99.90
51637;DHT22;37713;53.254;6.460;2023-05-02T15:22:03;10.30;99.90
51637;DHT22;37713;53.254;6.460;2023-05-02T15:24:29;10.40;99.90
51637;DHT22;37713;53.254;6.460;2023-05-02T15:26:55;10.50;99.90
51637;DHT22;37713;53.254;6.460;2023-05-02T15:29:21;10.50;99.90
51637;DHT22;37713;53.254;6.460;2023-05-02T15:31:46;10.60;99.90
51637;DHT22;37713;53.254;6.460;2023-05-02T15:34:12;10.60;99.90
51637;DHT22;37713;53.254;6.460;2023-05-02T15:36:39;10.70;99.90
51637;DHT22;37713;53.254;6.460;2023-05-02T15:39:05;10.50;99.90
51637;DHT22;37713;53.254;6.460;2023-05-02T15:41:32;10.60;99.90
51637;DHT22;37713;53.254;6.460;2023-05-02T15:43:58;10.60;99.90
51637;DHT22;37713;53.254;6.460;2023-05-02T15:46:23;10.50;99.90
51637;DHT22;37713;53.254;6.460;2023-05-02T15:48:50;10.30;99.90
51637;DHT22;37713;53.254;6.460;2023-05-02T15:51:16;10.20;99.90
51637;DHT22;37713;53.254;6.460;2023-05-02T15:53:42;10.10;99.90
51637;DHT22;37713;53.254;6.460;2023-05-02T15:56:12;10.10;99.90
51637;DHT22;37713;53.254;6.460;2023-05-02T15:58:39;10.20;99.90
51637;DHT22;37713;53.254;6.460;2023-05-02T16:01:05;10.20;99.90
51637;DHT22;37713;53.254;6.460;2023-05-02T16:03:31;10.20;99.90
51637;DHT22;37713;53.254;6.460;2023-05-02T16:05:59;10.30;99.90
51637;DHT22;37713;53.254;6.460;2023-05-02T16:08:28;10.10;99.90
51637;DHT22;37713;53.254;6.460;2023-05-02T16:10:54;10.10;99.90
51637;DHT22;37713;53.254;6.460;2023-05-02T16:13:20;10.00;99.90
51637;DHT22;37713;53.254;6.460;2023-05-02T16:15:46;10.00;99.90
51637;DHT22;37713;53.254;6.460;2023-05-02T16:18:13;10.00;99.90
51637;DHT22;37713;53.254;6.460;2023-05-02T16:20:39;9.90;99.90
51637;DHT22;37713;53.254;6.460;2023-05-02T16:23:06;9.80;99.90
51637;DHT22;37713;53.254;6.460;2023-05-02T16:25:32;9.80;99.90
51637;DHT22;37713;53.254;6.460;2023-05-02T16:27:59;9.60;99.90